Bloomburg, Texas
Current Conditions -  °F | °C
As of 1:53 AM on Monday 22 Dec 2014 (Local Time) from KTXK Reporting Station
Overcast Overcast  
Wind Chill: 45°   Ceiling: 4200
Heat Index: 49°   Visibility: 10mi
Dew Point: 46°   Wind: 9mph
Humidity: 90%   Direction: 160°SSE
Pressure: 29.78"   Gusts: NA
Location:  33.14°N, 94.06°W
Report Text: KTXK 220753Z AUTO 16008KT 10SM OVC042 09/08 A2978 RMK AO2 SLP084 T00940078
Loading
Personal Weather Stations






























Interactive Weather Map New forecast layout! Learn more

10-Day Weather Forecast

Advertisements
Track Severe Weather on mobile